Time;durP1;ratioP1;P1;durP2;ratioP2;P2;SDS_P1;SDS_P2;PMS_P1;PMS_P2;Temp;Humidity;BMP_temperature;BMP_pressure;BME280_temperature;BME280_humidity;BME280_pressure;Samples;Min_cycle;Max_cycle;Signal;HPM_P1;HPM_P2
2022/10/04 00:01:10;;;;;;;10.80;8.78;;;;;;;6.31;90.08;94235.80;1616612;87;21013;-58
2022/10/04 00:03:51;;;;;;;10.95;7.87;;;;;;;6.32;90.18;94236.59;1644118;87;21029;-58
2022/10/04 00:06:22;;;;;;;7.35;6.50;;;;;;;6.28;89.90;94235.89;1644102;86;21005;-58
2022/10/04 00:09:02;;;;;;;8.35;5.67;;;;;;;6.19;90.04;94231.05;1644645;87;21067;-58
2022/10/04 00:11:36;;;;;;;6.85;5.50;;;;;;;6.13;89.78;94239.61;1644198;86;21077;-57
2022/10/04 00:14:11;;;;;;;12.75;6.62;;;;;;;6.08;90.06;94238.00;1617570;87;21069;-58
2022/10/04 00:16:39;;;;;;;9.55;6.75;;;;;;;6.00;89.93;94237.42;1644435;86;21029;-58
2022/10/04 00:19:18;;;;;;;7.72;5.33;;;;;;;5.95;90.25;94243.41;1644488;87;20977;-58
2022/10/04 00:21:57;;;;;;;7.55;5.25;;;;;;;5.96;90.51;94240.09;1643959;87;21273;-57
2022/10/04 00:24:34;;;;;;;6.03;5.40;;;;;;;5.94;90.48;94243.24;1644576;87;21520;-58
2022/10/04 00:27:20;;;;;;;5.92;5.37;;;;;;;5.94;90.55;94242.49;1617254;87;21509;-58
2022/10/04 00:30:21;;;;;;;11.68;8.83;;;;;;;5.94;90.62;94250.06;1637117;87;20989;-58
2022/10/04 00:33:03;;;;;;;25.48;17.60;;;;;;;5.97;91.15;94249.20;1644316;87;21045;-58
2022/10/04 00:35:37;;;;;;;17.10;7.80;;;;;;;6.05;91.41;94242.96;1615112;88;21580;-58
2022/10/04 00:38:17;;;;;;;17.07;8.95;;;;;;;6.09;90.89;94239.53;1614898;89;21006;-57
2022/10/04 00:40:56;;;;;;;13.58;8.33;;;;;;;6.06;90.64;94240.40;1614953;89;21020;-58
2022/10/04 00:43:42;;;;;;;10.32;7.92;;;;;;;5.97;90.46;94237.53;1587930;89;21073;-58
2022/10/04 00:46:17;;;;;;;11.85;7.60;;;;;;;5.88;90.66;94237.36;1615232;88;21473;-57
2022/10/04 00:48:58;;;;;;;7.35;6.50;;;;;;;5.85;90.79;94235.50;1614691;87;21268;-57
2022/10/04 00:51:51;;;;;;;7.50;6.42;;;;;;;5.84;90.57;94233.97;1590337;87;21115;-57
2022/10/04 00:54:30;;;;;;;8.60;6.55;;;;;;;5.79;90.44;94236.61;1633152;87;24922;-57
2022/10/04 00:57:02;;;;;;;8.05;6.30;;;;;;;5.74;90.43;94236.33;1633809;87;21508;-57
2022/10/04 00:59:51;;;;;;;7.23;6.00;;;;;;;5.67;90.49;94240.02;1639126;87;21023;-58
2022/10/04 01:02:39;;;;;;;7.72;5.47;;;;;;;5.59;90.28;94232.44;1621701;87;21253;-58
2022/10/04 01:05:10;;;;;;;8.78;5.25;;;;;;;5.59;90.93;94235.16;1638227;87;21051;-57
2022/10/04 01:07:48;;;;;;;9.35;5.92;;;;;;;5.60;90.78;94241.55;1621878;87;21068;-58
2022/10/04 01:10:31;;;;;;;6.35;4.95;;;;;;;5.63;91.01;94233.86;1638218;87;21043;-57
2022/10/04 01:13:17;;;;;;;5.28;4.67;;;;;;;5.66;90.78;94240.44;1621996;88;21491;-58
2022/10/04 01:15:58;;;;;;;6.03;4.40;;;;;;;5.68;90.69;94240.19;1638535;87;21115;-57
2022/10/04 01:18:31;;;;;;;5.43;4.90;;;;;;;5.71;90.38;94245.38;1620751;88;21028;-57
2022/10/04 01:21:10;;;;;;;6.35;5.80;;;;;;;5.73;90.19;94245.70;1638242;87;20990;-58
2022/10/04 01:23:59;;;;;;;5.95;4.95;;;;;;;5.71;89.90;94248.09;1615128;88;21020;-57
2022/10/04 01:26:36;;;;;;;5.55;5.05;;;;;;;5.64;89.64;94253.74;1638372;87;21145;-57
2022/10/04 01:29:17;;;;;;;4.97;4.58;;;;;;;5.51;89.57;94256.98;1621728;87;21304;-56
2022/10/04 01:31:49;;;;;;;4.83;4.30;;;;;;;5.47;89.67;94261.75;1638593;87;21016;-57
2022/10/04 01:34:22;;;;;;;5.35;4.65;;;;;;;5.42;89.67;94260.91;1599927;88;21560;-57
2022/10/04 01:36:56;;;;;;;6.47;5.40;;;;;;;5.42;90.19;94259.55;1638557;87;22360;-57
2022/10/04 01:39:25;;;;;;;5.80;4.60;;;;;;;5.45;90.42;94264.90;1601058;88;21627;-58
2022/10/04 01:42:02;;;;;;;8.18;5.28;;;;;;;5.46;90.27;94267.80;1638290;87;21904;-58
2022/10/04 01:44:46;;;;;;;7.12;6.53;;;;;;;5.45;90.20;94266.88;1600353;88;21049;-58
2022/10/04 01:47:22;;;;;;;6.17;4.85;;;;;;;5.46;90.33;94260.22;1638513;87;21091;-58
2022/10/04 01:49:50;;;;;;;7.10;5.58;;;;;;;5.47;89.95;94270.72;1620997;88;21084;-58
2022/10/04 01:52:23;;;;;;;6.30;5.65;;;;;;;5.44;89.85;94268.06;1629547;86;21045;-57
2022/10/04 01:55:10;;;;;;;9.38;6.87;;;;;;;5.44;89.80;94270.80;1614668;89;21254;-58
2022/10/04 01:57:49;;;;;;;6.22;5.62;;;;;;;5.42;89.62;94271.20;1614859;87;20985;-58
2022/10/04 02:00:18;;;;;;;7.72;6.30;;;;;;;5.40;89.44;94272.84;1589409;90;20999;-57
2022/10/04 02:02:56;;;;;;;8.23;5.30;;;;;;;5.35;89.01;94267.88;1598392;88;21063;-57
2022/10/04 02:05:34;;;;;;;6.17;4.95;;;;;;;5.32;89.40;94272.82;1619690;88;21683;-58
2022/10/04 02:08:05;;;;;;;7.85;5.33;;;;;;;5.36;89.65;94278.95;1617157;88;21220;-57
2022/10/04 02:10:35;;;;;;;8.33;5.17;;;;;;;5.37;89.45;94270.94;1614751;87;21027;-58
2022/10/04 02:13:06;;;;;;;8.58;4.85;;;;;;;5.37;89.32;94276.40;1614801;89;21094;-57
2022/10/04 02:15:34;;;;;;;8.40;4.55;;;;;;;5.32;89.12;94270.88;1588475;89;21066;-58
2022/10/04 02:18:05;;;;;;;4.58;4.17;;;;;;;5.31;89.04;94278.89;1568450;88;21121;-58
2022/10/04 02:20:32;;;;;;;11.50;5.12;;;;;;;5.28;88.60;94274.26;1614613;89;21125;-57
2022/10/04 02:23:02;;;;;;;7.50;5.20;;;;;;;5.24;88.39;94272.83;1614758;89;21009;-58
2022/10/04 02:25:30;;;;;;;4.95;4.50;;;;;;;5.19;88.33;94278.77;1614647;89;21010;-57
2022/10/04 02:27:59;;;;;;;5.83;4.87;;;;;;;5.10;88.61;94284.05;1615020;89;21509;-58
2022/10/04 02:30:26;;;;;;;5.25;4.72;;;;;;;5.08;89.05;94289.16;1588129;89;21051;-58
2022/10/04 02:32:56;;;;;;;5.50;4.95;;;;;;;5.05;89.05;94282.41;1614499;88;21260;-58
2022/10/04 02:35:30;;;;;;;7.20;6.30;;;;;;;4.99;89.10;94288.95;1614768;89;21001;-57
2022/10/04 02:38:19;;;;;;;6.17;5.60;;;;;;;4.88;89.24;94291.15;1614685;89;21055;-58
2022/10/04 02:41:02;;;;;;;5.28;4.75;;;;;;;4.84;89.93;94295.13;1614967;89;21030;-57
2022/10/04 02:43:52;;;;;;;5.62;5.10;;;;;;;4.83;90.39;94294.34;1614591;89;21055;-58
2022/10/04 02:46:32;;;;;;;7.70;5.10;;;;;;;4.81;90.24;94291.28;1614623;89;21188;-58
2022/10/04 02:49:03;;;;;;;6.20;4.80;;;;;;;4.80;90.37;94292.47;1614500;87;20990;-58
2022/10/04 02:51:40;;;;;;;5.33;4.90;;;;;;;4.83;90.41;94290.88;1614946;89;21059;-57
2022/10/04 02:54:31;;;;;;;10.68;5.50;;;;;;;4.83;90.17;94292.98;1614467;87;21541;-57
2022/10/04 02:56:58;;;;;;;6.65;4.67;;;;;;;4.86;90.56;94291.39;1613856;89;21011;-58
2022/10/04 02:59:26;;;;;;;10.53;5.37;;;;;;;4.88;90.01;94302.63;1614933;87;21747;-57
2022/10/04 03:01:57;;;;;;;7.17;5.00;;;;;;;4.82;89.74;94306.44;1589297;90;21059;-58
2022/10/04 03:04:29;;;;;;;4.67;4.28;;;;;;;4.78;89.87;94305.00;1614993;89;21128;-58
2022/10/04 03:06:56;;;;;;;5.80;5.25;;;;;;;4.77;89.98;94306.19;1614921;88;21038;-58
2022/10/04 03:09:25;;;;;;;5.22;4.72;;;;;;;4.76;90.22;94305.41;1614858;89;21058;-57
2022/10/04 03:11:54;;;;;;;6.72;5.37;;;;;;;4.75;90.04;94306.59;1614517;89;21840;-57
2022/10/04 03:14:24;;;;;;;6.30;5.70;;;;;;;4.69;89.99;94304.20;1614468;89;21097;-58
2022/10/04 03:16:54;;;;;;;5.37;4.95;;;;;;;4.67;90.03;94302.49;1615000;87;21596;-57
2022/10/04 03:19:22;;;;;;;6.22;5.47;;;;;;;4.68;90.02;94315.50;1614610;89;21561;-58
2022/10/04 03:21:52;;;;;;;8.58;5.95;;;;;;;4.65;89.98;94314.98;1614921;89;21488;-57
2022/10/04 03:24:30;;;;;;;6.70;5.72;;;;;;;4.64;90.10;94306.64;1587461;89;21263;-58
2022/10/04 03:27:02;;;;;;;6.20;5.60;;;;;;;4.66;90.17;94308.34;1614626;89;21037;-58
2022/10/04 03:29:31;;;;;;;6.00;5.45;;;;;;;4.66;90.25;94309.13;1614756;87;21034;-57
2022/10/04 03:32:02;;;;;;;6.55;5.65;;;;;;;4.70;90.21;94308.45;1614547;89;21042;-57
2022/10/04 03:34:40;;;;;;;5.83;5.30;;;;;;;4.73;90.09;94299.44;1614824;89;21075;-57
2022/10/04 03:37:15;;;;;;;6.12;4.33;;;;;;;4.76;89.86;94293.14;1589352;89;21078;-58
2022/10/04 03:39:47;;;;;;;4.50;4.20;;;;;;;4.76;89.33;94297.23;1614667;89;21044;-58
2022/10/04 03:42:18;;;;;;;4.90;4.50;;;;;;;4.67;88.98;94305.22;1614862;87;21045;-58
2022/10/04 03:44:47;;;;;;;7.10;5.17;;;;;;;4.64;89.07;94305.28;1614148;88;21166;-57
2022/10/04 03:47:31;;;;;;;6.25;5.33;;;;;;;4.61;89.24;94304.16;1615046;87;21024;-58
2022/10/04 03:50:02;;;;;;;5.58;4.90;;;;;;;4.58;89.37;94308.33;1614726;89;21258;-56
2022/10/04 03:52:33;;;;;;;6.85;5.33;;;;;;;4.55;89.55;94307.20;1615714;87;21599;-57
2022/10/04 03:55:02;;;;;;;8.43;6.30;;;;;;;4.61;90.28;94302.79;1594266;90;21032;-57
2022/10/04 03:57:30;;;;;;;11.48;8.45;;;;;;;4.63;90.45;94303.13;1594287;88;21020;-57
2022/10/04 03:59:57;;;;;;;11.08;7.78;;;;;;;4.69;90.58;94313.73;1569941;90;21032;-57
2022/10/04 04:02:33;;;;;;;12.25;6.55;;;;;;;4.76;90.62;94306.77;1594242;90;21276;-57
2022/10/04 04:05:11;;;;;;;8.35;6.30;;;;;;;4.85;90.53;94297.45;1619915;88;21598;-58
2022/10/04 04:07:46;;;;;;;7.83;6.05;;;;;;;4.94;90.10;94300.35;1619711;88;21444;-58
2022/10/04 04:10:30;;;;;;;8.38;6.08;;;;;;;4.98;89.71;94309.22;1594228;90;21061;-59
2022/10/04 04:13:03;;;;;;;10.50;6.33;;;;;;;4.94;89.41;94305.80;1594381;90;21021;-58
2022/10/04 04:15:32;;;;;;;7.75;6.08;;;;;;;4.93;89.34;94320.63;1592612;90;21156;-58
2022/10/04 04:18:04;;;;;;;10.05;5.50;;;;;;;4.91;89.27;94321.64;1594322;90;21016;-58
2022/10/04 04:20:35;;;;;;;5.72;4.87;;;;;;;4.91;89.32;94323.00;1570320;90;21067;-57
2022/10/04 04:23:11;;;;;;;7.97;5.53;;;;;;;4.92;89.09;94327.27;1569580;90;21091;-57
2022/10/04 04:25:41;;;;;;;10.13;5.65;;;;;;;4.90;89.39;94324.19;1620060;87;21648;-57
2022/10/04 04:28:32;;;;;;;5.60;5.00;;;;;;;4.92;89.78;94324.54;1619798;88;21849;-58
2022/10/04 04:31:09;;;;;;;8.50;6.03;;;;;;;4.93;89.88;94333.50;1591618;88;21047;-59
2022/10/04 04:34:01;;;;;;;6.85;5.37;;;;;;;4.97;89.82;94334.94;1619572;87;20998;-60
2022/10/04 04:36:32;;;;;;;7.47;6.05;;;;;;;5.01;89.85;94336.98;1619815;88;21027;-60
2022/10/04 04:39:33;;;;;;;8.10;7.28;;;;;;;5.09;89.94;94337.03;1618872;88;21439;-58
2022/10/04 04:42:17;;;;;;;7.95;7.15;;;;;;;5.18;89.81;94342.66;1619861;88;21814;-60
2022/10/04 04:44:59;;;;;;;9.00;8.10;;;;;;;5.22;89.36;94345.33;1619825;88;21000;-59
2022/10/04 04:47:44;;;;;;;15.25;10.75;;;;;;;5.18;89.00;94354.93;1594140;90;21475;-59
2022/10/04 04:50:32;;;;;;;11.90;8.68;;;;;;;5.12;89.25;94358.60;1619643;88;21096;-58
2022/10/04 04:53:11;;;;;;;7.92;7.12;;;;;;;5.14;89.44;94356.97;1594352;90;21054;-56
2022/10/04 04:55:44;;;;;;;5.80;5.30;;;;;;;5.20;89.59;94358.03;1617200;88;21416;-56
2022/10/04 04:58:20;;;;;;;9.13;6.35;;;;;;;5.23;89.30;94361.85;1617412;88;21064;-58
2022/10/04 05:00:54;;;;;;;7.17;6.47;;;;;;;5.18;89.35;94359.02;1617113;88;20978;-57
2022/10/04 05:03:22;;;;;;;6.90;6.30;;;;;;;5.19;89.51;94375.55;1615491;88;21013;-59
2022/10/04 05:05:53;;;;;;;11.30;8.68;;;;;;;5.20;89.63;94374.39;1617120;88;21560;-58
2022/10/04 05:08:28;;;;;;;10.88;8.95;;;;;;;5.13;89.13;94375.88;1617074;87;21240;-60
2022/10/04 05:11:15;;;;;;;12.13;9.00;;;;;;;5.06;89.24;94384.22;1617173;88;21470;-59
2022/10/04 05:14:01;;;;;;;10.70;9.03;;;;;;;5.00;89.35;94385.88;1617336;88;21034;-58
2022/10/04 05:16:40;;;;;;;14.60;9.80;;;;;;;4.93;89.31;94384.67;1575712;88;21010;-60
2022/10/04 05:19:23;;;;;;;9.60;8.73;;;;;;;4.83;89.65;94391.69;1617123;87;20994;-60
2022/10/04 05:21:52;;;;;;;;;;;;;;;4.79;89.92;94393.11;1618487;88;22060;-60
2022/10/04 05:24:42;;;;;;;16.45;10.35;;;;;;;4.79;90.43;94395.84;1617058;88;20138;-58
2022/10/04 05:27:24;;;;;;;15.65;9.23;;;;;;;4.84;90.82;94400.83;1620591;86;21663;-59
2022/10/04 05:30:27;;;;;;;22.02;14.18;;;;;;;4.92;91.16;94397.34;1611464;87;22673;-57
2022/10/04 05:33:13;;;;;;;17.90;15.50;;;;;;;4.96;90.96;94395.34;1627359;87;21080;-59
2022/10/04 05:36:08;;;;;;;23.47;12.78;;;;;;;5.01;91.21;94402.41;1640760;86;21460;-64
2022/10/04 05:39:01;;;;;;;16.17;13.10;;;;;;;5.11;91.25;94407.50;1637928;87;21528;-61
2022/10/04 05:41:32;;;;;;;26.23;19.05;;;;;;;5.23;91.21;94408.99;1633827;86;21099;-63
2022/10/04 05:44:01;;;;;;;111.12;57.88;;;;;;;5.29;91.11;94406.72;1632563;86;20972;-61
2022/10/04 05:46:33;;;;;;;58.28;36.77;;;;;;;5.35;91.05;94417.88;1593897;87;21567;-62
2022/10/04 05:49:05;;;;;;;36.03;22.77;;;;;;;5.38;91.20;94413.72;1633167;87;21168;-63
2022/10/04 05:51:56;;;;;;;25.97;17.65;;;;;;;5.43;90.97;94418.67;1643929;87;21059;-59
2022/10/04 05:54:25;;;;;;;26.77;17.92;;;;;;;5.41;90.63;94423.78;1621285;86;21586;-58
2022/10/04 05:57:28;;;;;;;28.90;17.37;;;;;;;5.41;90.78;94419.69;1614475;86;21059;-61
2022/10/04 06:00:08;;;;;;;23.07;17.77;;;;;;;5.47;90.97;94422.70;1631866;85;21096;-62
2022/10/04 06:03:09;;;;;;;27.22;19.30;;;;;;;5.43;90.60;94423.38;1642364;85;21362;-62
2022/10/04 06:06:17;;;;;;;41.05;27.02;;;;;;;5.45;91.14;94431.28;1647019;84;22333;-61
2022/10/04 06:09:13;;;;;;;36.03;22.73;;;;;;;5.53;91.49;94431.91;1617676;85;21144;-62
2022/10/04 06:12:00;;;;;;;34.73;22.67;;;;;;;5.71;91.82;94437.75;1646428;85;21194;-61
2022/10/04 06:15:00;;;;;;;36.00;23.87;;;;;;;5.83;91.76;94434.41;1643923;85;21008;-59
2022/10/04 06:17:47;;;;;;;22.20;15.10;;;;;;;5.94;92.07;94444.50;1628754;87;21804;-62
2022/10/04 06:20:26;;;;;;;17.50;14.25;;;;;;;6.01;91.79;94440.23;1621648;87;21128;-60
2022/10/04 06:23:02;;;;;;;15.70;13.40;;;;;;;6.08;91.36;94444.16;1606936;87;21141;-60
2022/10/04 06:25:35;;;;;;;24.02;16.73;;;;;;;6.12;91.29;94453.05;1604707;87;21034;-59
2022/10/04 06:28:20;;;;;;;27.17;18.85;;;;;;;6.17;91.09;94442.98;1612841;87;21061;-60
2022/10/04 06:31:23;;;;;;;21.77;16.00;;;;;;;6.26;90.98;94454.06;1595215;87;21122;-64
2022/10/04 06:34:08;;;;;;;23.98;16.50;;;;;;;6.34;90.75;94454.08;1628831;87;21061;-61
2022/10/04 06:36:50;;;;;;;23.92;16.93;;;;;;;6.37;89.74;94465.52;1601598;87;21086;-61
2022/10/04 06:39:48;;;;;;;36.38;25.95;;;;;;;6.41;89.59;94474.39;1615500;87;21086;-61
2022/10/04 06:42:56;;;;;;;161.75;88.33;;;;;;;6.46;89.38;94477.97;1586601;87;21570;-61
2022/10/04 06:45:52;;;;;;;259.05;108.20;;;;;;;6.54;90.06;94469.17;1606487;87;21303;-60
2022/10/04 06:48:40;;;;;;;225.38;100.40;;;;;;;6.75;90.11;94477.45;1606875;87;21044;-58
2022/10/04 06:51:44;;;;;;;128.75;60.58;;;;;;;6.96;89.90;94475.54;1640250;85;21147;-62
2022/10/04 06:54:23;;;;;;;51.02;29.92;;;;;;;7.12;89.84;94483.88;1637176;84;21066;-62
2022/10/04 06:57:28;;;;;;;50.58;29.92;;;;;;;7.25;89.04;94484.71;1632961;86;21032;-58
2022/10/04 07:00:29;;;;;;;41.08;25.32;;;;;;;7.31;88.67;94495.28;1637176;86;21155;-60
2022/10/04 07:03:06;;;;;;;34.13;22.50;;;;;;;7.41;88.66;94488.77;1640121;86;21098;-59
2022/10/04 07:06:00;;;;;;;;;;;;;;;7.46;87.81;94487.45;1640228;86;22291;-59
2022/10/04 07:08:41;;;;;;;16.20;13.03;;;;;;;7.50;87.85;94498.47;1613596;86;20749;-58
2022/10/04 07:11:25;;;;;;;15.53;11.57;;;;;;;7.63;87.57;94492.45;1587427;89;21156;-62
2022/10/04 07:13:59;;;;;;;18.95;13.65;;;;;;;7.74;86.83;94505.22;1613794;87;21185;-60
2022/10/04 07:16:54;;;;;;;14.38;10.85;;;;;;;7.81;86.59;94498.77;1616012;87;21225;-58
2022/10/04 07:19:46;;;;;;;14.45;9.63;;;;;;;7.97;86.16;94491.26;1589427;88;21594;-59
2022/10/04 07:22:37;;;;;;;10.75;9.65;;;;;;;8.09;85.61;94491.86;1594906;88;21062;-61
2022/10/04 07:25:26;;;;;;;11.55;10.32;;;;;;;8.26;85.32;94489.21;1586358;88;21018;-63
2022/10/04 07:31:16;;;;;;;15.63;11.45;;;;;;;8.49;84.63;94497.72;1587787;88;21058;-59
2022/10/04 07:33:54;;;;;;;15.55;10.95;;;;;;;8.60;84.39;94505.77;1554354;88;21163;-60
2022/10/04 07:36:45;;;;;;;18.55;13.35;;;;;;;8.76;84.03;94498.04;1580883;88;21128;-60
2022/10/04 07:39:23;;;;;;;19.98;13.50;;;;;;;8.98;84.23;94494.13;1582849;88;22189;-63
2022/10/04 07:42:19;;;;;;;14.40;11.28;;;;;;;9.22;84.42;94495.30;1589964;88;21702;-63
2022/10/04 07:44:57;;;;;;;12.63;10.08;;;;;;;9.35;83.91;94494.03;1580570;88;23100;-62
2022/10/04 07:47:26;;;;;;;13.48;9.98;;;;;;;9.52;83.16;94504.22;1574937;87;21096;-62
2022/10/04 07:49:56;;;;;;;13.50;10.08;;;;;;;9.58;82.55;94496.34;1602576;87;21143;-62
2022/10/04 07:52:59;;;;;;;9.50;7.55;;;;;;;9.71;82.32;94507.27;1597284;87;21652;-62
2022/10/04 07:55:56;;;;;;;10.77;8.13;;;;;;;9.86;81.97;94506.33;1608175;87;21137;-60
2022/10/04 07:58:54;;;;;;;10.65;8.65;;;;;;;9.97;80.87;94500.44;1595218;88;21006;-63
2022/10/04 08:01:39;;;;;;;15.25;11.12;;;;;;;10.01;79.98;94500.47;1581277;88;21092;-58
2022/10/04 08:04:45;;;;;;;16.95;12.85;;;;;;;10.09;80.13;94515.50;1563295;90;21689;-61
2022/10/04 08:07:39;;;;;;;11.43;8.53;;;;;;;10.19;78.96;94515.70;1596237;88;21944;-57
2022/10/04 08:10:41;;;;;;;9.50;7.03;;;;;;;10.36;79.01;94517.02;1586804;88;22148;-62
2022/10/04 08:13:18;;;;;;;13.53;8.23;;;;;;;10.52;78.36;94514.66;1587101;88;21675;-64
2022/10/04 08:15:47;;;;;;;16.45;10.20;;;;;;;10.73;77.54;94513.98;1588403;89;21137;-66
2022/10/04 08:18:40;;;;;;;15.40;9.63;;;;;;;10.97;77.31;94504.58;1585066;88;21645;-64
2022/10/04 08:21:09;;;;;;;11.15;6.40;;;;;;;11.23;76.52;94503.87;1592577;88;21067;-61
2022/10/04 08:24:04;;;;;;;7.87;5.20;;;;;;;11.45;74.91;94495.45;1586734;88;22209;-62
2022/10/04 08:27:13;;;;;;;7.05;5.15;;;;;;;11.61;73.47;94498.72;1597696;89;21126;-61
2022/10/04 08:30:11;;;;;;;9.43;6.20;;;;;;;11.85;73.28;94489.97;1562022;89;21026;-64
2022/10/04 08:33:09;;;;;;;6.78;4.70;;;;;;;12.14;72.15;94487.48;1580703;88;21026;-63
2022/10/04 08:36:07;;;;;;;4.42;3.37;;;;;;;12.38;71.41;94483.42;1593472;88;21514;-62
2022/10/04 08:38:53;;;;;;;4.60;3.65;;;;;;;12.50;68.86;94474.19;1596466;89;21887;-60
2022/10/04 08:41:46;;;;;;;4.37;3.98;;;;;;;12.55;67.48;94474.33;1593655;88;21092;-62
2022/10/04 08:44:55;;;;;;;8.53;3.60;;;;;;;12.57;68.01;94467.72;1589934;88;21680;-63
2022/10/04 08:48:02;;;;;;;4.92;3.67;;;;;;;12.61;66.73;94476.59;1586302;89;21093;-61
2022/10/04 08:51:11;;;;;;;8.53;3.92;;;;;;;12.64;66.36;94466.00;1601953;88;21069;-60
2022/10/04 08:54:05;;;;;;;7.97;3.50;;;;;;;12.77;66.46;94469.32;1600787;88;21346;-64
2022/10/04 08:57:14;;;;;;;6.37;3.42;;;;;;;12.95;65.34;94474.78;1592521;88;21090;-59
2022/10/04 09:00:04;;;;;;;9.48;3.72;;;;;;;12.97;64.42;94475.84;1587275;89;21045;-61
2022/10/04 09:02:54;;;;;;;12.88;4.53;;;;;;;13.05;64.26;94479.03;1640789;85;21058;-62
2022/10/04 09:05:58;;;;;;;3.58;2.90;;;;;;;13.12;62.90;94480.80;1637837;86;21086;-60
2022/10/04 09:09:04;;;;;;;6.87;3.52;;;;;;;13.20;62.62;94479.84;1633867;85;21831;-59
2022/10/04 09:12:15;;;;;;;4.67;2.42;;;;;;;13.38;61.34;94476.95;1634106;86;21595;-61
2022/10/04 09:15:12;;;;;;;6.53;3.20;;;;;;;13.61;60.24;94476.19;1615200;85;21019;-64
2022/10/04 09:18:08;;;;;;;3.15;2.85;;;;;;;13.85;57.68;94474.88;1636764;85;21389;-61
2022/10/04 09:20:59;;;;;;;5.00;2.20;;;;;;;14.11;55.39;94486.95;1626216;87;21078;-63
2022/10/04 09:24:08;;;;;;;3.30;2.42;;;;;;;14.45;52.41;94485.69;1635517;86;21279;-60
2022/10/04 09:26:46;;;;;;;2.90;2.70;;;;;;;14.69;52.84;94486.36;1636830;86;21138;-62
2022/10/04 09:29:51;;;;;;;6.08;2.42;;;;;;;14.83;51.62;94488.95;1634731;86;21024;-63
2022/10/04 09:33:00;;;;;;;12.00;3.15;;;;;;;14.94;51.86;94489.11;1632001;87;21073;-61
2022/10/04 09:36:03;;;;;;;5.28;2.17;;;;;;;15.03;50.27;94490.39;1625155;86;21013;-62
2022/10/04 09:38:53;;;;;;;2.15;1.95;;;;;;;14.86;50.57;94493.53;1610310;85;21272;-64
2022/10/04 09:42:11;;;;;;;2.75;2.30;;;;;;;14.84;51.65;94488.45;1635660;86;21089;-63
2022/10/04 09:45:14;;;;;;;5.03;1.85;;;;;;;15.16;50.17;94492.97;1644742;86;21913;-60
2022/10/04 09:48:17;;;;;;;2.05;1.95;;;;;;;15.73;50.17;94494.66;1636590;86;21487;-65
2022/10/04 10:06:58;;;;;;;3.87;1.85;;;;;;;16.74;45.07;94492.58;1611249;86;21090;-61
2022/10/04 10:13:42;;;;;;;1.27;1.17;;;;;;;16.21;46.21;94506.17;1597419;87;21037;-64
2022/10/04 10:16:44;;;;;;;2.20;1.10;;;;;;;16.17;46.30;94509.80;1608956;86;21106;-61
2022/10/04 10:19:59;;;;;;;14.30;2.35;;;;;;;15.84;46.41;94518.34;1599740;86;21061;-62
2022/10/04 10:22:51;;;;;;;2.22;1.77;;;;;;;15.51;48.01;94514.53;1592477;87;21046;-59
2022/10/04 10:25:57;;;;;;;4.15;3.22;;;;;;;15.26;48.70;94525.48;1621738;88;21147;-62
2022/10/04 10:28:51;;;;;;;3.70;1.40;;;;;;;15.02;50.75;94529.79;1609645;86;21078;-59
2022/10/04 10:31:42;;;;;;;;;;;;;;;14.66;53.94;94534.36;1549111;90;21135;-60
2022/10/04 10:34:33;;;;;;;1.60;1.50;;;;;;;14.28;56.17;94539.23;1599319;87;20156;-59
2022/10/04 10:37:29;;;;;;;1.40;1.30;;;;;;;13.96;58.15;94536.59;1612652;87;21135;-62
2022/10/04 10:40:20;;;;;;;2.58;2.22;;;;;;;13.94;59.31;94541.80;1617311;86;22185;-61
2022/10/04 10:43:19;;;;;;;8.05;4.00;;;;;;;14.40;60.54;94547.12;1606607;86;21366;-60
2022/10/04 10:46:18;;;;;;;5.85;5.10;;;;;;;15.10;60.14;94547.56;1613115;86;21165;-62
2022/10/04 10:49:06;;;;;;;2.42;2.22;;;;;;;16.03;53.86;94537.01;1596515;87;21125;-63
2022/10/04 10:51:54;;;;;;;2.15;1.90;;;;;;;16.66;51.13;94526.98;1604057;86;21069;-60
2022/10/04 10:54:46;;;;;;;4.40;3.02;;;;;;;16.97;51.12;94522.83;1583881;86;21160;-61
2022/10/04 10:57:52;;;;;;;9.25;6.97;;;;;;;17.03;49.34;94522.23;1607884;86;21051;-62
2022/10/04 11:00:26;;;;;;;5.80;1.65;;;;;;;16.86;47.49;94524.12;1599948;87;21156;-59
2022/10/04 11:03:17;;;;;;;14.83;13.40;;;;;;;16.63;47.64;94523.02;1623147;86;21101;-62
2022/10/04 11:06:14;;;;;;;2.10;1.90;;;;;;;16.43;47.80;94526.64;1608278;88;21088;-61
2022/10/04 11:21:32;;;;;;;1.95;1.00;;;;;;;17.98;44.14;94524.36;1651233;82;21152;31
2022/10/04 11:24:43;;;;;;;7.37;2.10;;;;;;;17.93;43.39;94529.25;1638977;86;21289;-55
2022/10/04 11:27:42;;;;;;;2.72;2.15;;;;;;;17.54;44.73;94528.30;1636358;86;21104;-56
2022/10/04 11:30:15;;;;;;;3.37;2.80;;;;;;;17.38;45.13;94537.30;1632928;86;20984;-53
2022/10/04 11:33:24;;;;;;;1.90;1.20;;;;;;;17.26;45.52;94541.99;1630476;86;21442;-58
2022/10/04 11:36:07;;;;;;;1.82;1.40;;;;;;;17.13;45.45;94542.28;1629059;86;20947;-55
2022/10/04 11:39:02;;;;;;;1.50;1.40;;;;;;;17.00;45.81;94541.30;1624136;86;21231;-55
2022/10/04 11:42:02;;;;;;;3.33;1.77;;;;;;;16.83;45.61;94552.13;1634526;86;21526;-57
2022/10/04 11:45:10;;;;;;;3.35;1.25;;;;;;;16.48;46.62;94563.41;1638928;85;21055;-60
2022/10/04 11:47:47;;;;;;;4.15;2.50;;;;;;;16.14;47.04;94559.35;1648464;85;21103;-55
2022/10/04 11:50:29;;;;;;;6.10;3.45;;;;;;;15.81;49.25;94576.97;1635898;86;21011;-55
2022/10/04 11:53:26;;;;;;;6.25;4.87;;;;;;;15.60;50.74;94578.20;1679700;83;21231;-53
2022/10/04 11:56:19;;;;;;;7.65;4.83;;;;;;;15.36;52.18;94562.33;1680629;83;21057;-53
2022/10/04 11:58:58;;;;;;;6.50;4.40;;;;;;;15.15;53.16;94580.13;1669507;83;21080;-53
2022/10/04 12:01:58;;;;;;;3.15;2.70;;;;;;;14.95;55.42;94582.05;1651967;86;21007;-61
2022/10/04 12:04:46;;;;;;;1.40;1.30;;;;;;;14.79;56.17;94590.87;1645175;86;21085;-55
2022/10/04 12:08:02;;;;;;;2.15;1.72;;;;;;;14.64;56.84;94585.94;1649050;85;21061;-55
2022/10/04 12:10:42;;;;;;;4.62;4.22;;;;;;;14.53;57.95;94590.66;1646289;86;21311;-54
2022/10/04 12:14:00;;;;;;;3.60;3.30;;;;;;;14.48;58.56;94599.61;1613823;87;21077;-55
2022/10/04 12:16:42;;;;;;;3.12;2.80;;;;;;;14.38;59.14;94594.63;1638838;86;21094;-57
2022/10/04 12:19:30;;;;;;;1.60;1.50;;;;;;;13.94;61.32;94599.27;1636576;86;21567;-53
2022/10/04 12:22:52;;;;;;;11.83;9.18;;;;;;;13.94;61.32;94599.27;1648722;84;21560;-54
2022/10/04 12:25:37;;;;;;;4.10;3.55;;;;;;;13.74;62.53;94602.47;1633626;86;21029;-56
2022/10/04 12:28:21;;;;;;;3.10;2.80;;;;;;;13.56;63.55;94615.02;1666212;85;21058;-55
2022/10/04 12:30:59;;;;;;;5.72;5.12;;;;;;;13.38;64.20;94616.50;1657540;84;21646;-56
2022/10/04 12:33:41;;;;;;;22.40;15.48;;;;;;;13.24;64.58;94619.33;1629594;85;21032;-52
2022/10/04 12:36:32;;;;;;;24.65;16.85;;;;;;;13.26;65.33;94623.02;1626453;86;21129;-53
2022/10/04 12:39:27;;;;;;;17.85;14.25;;;;;;;13.30;64.92;94627.75;1646920;85;21052;-54
2022/10/04 12:42:24;;;;;;;11.38;8.45;;;;;;;13.28;64.92;94629.59;1673138;84;21400;-55
2022/10/04 12:45:00;;;;;;;16.15;12.43;;;;;;;13.25;64.62;94624.25;1638584;86;21109;-55
2022/10/04 12:47:52;;;;;;;15.53;11.05;;;;;;;13.16;64.74;94637.48;1722359;82;21139;-54
2022/10/04 12:50:34;;;;;;;8.08;6.67;;;;;;;13.38;65.56;94651.03;1694841;82;21311;-59
2022/10/04 12:53:13;;;;;;;36.25;22.75;;;;;;;14.02;63.88;94641.17;1711727;82;21003;-54
2022/10/04 12:56:05;;;;;;;16.55;11.43;;;;;;;14.62;62.07;94641.78;1707194;82;22449;-55
2022/10/04 12:58:52;;;;;;;7.08;5.17;;;;;;;15.21;60.28;94644.71;1706904;82;21140;-52
2022/10/04 13:01:39;;;;;;;13.93;9.30;;;;;;;15.54;58.03;94646.66;1697468;83;21563;-55
2022/10/04 13:04:21;;;;;;;6.90;5.95;;;;;;;15.59;58.00;94655.70;1685885;82;22271;-58
2022/10/04 13:07:20;;;;;;;7.03;5.17;;;;;;;15.64;57.86;94659.79;1698022;82;21351;-54
2022/10/04 13:10:25;;;;;;;6.50;5.78;;;;;;;15.94;56.85;94653.67;1712825;82;21079;-55
2022/10/04 13:13:32;;;;;;;2.45;1.90;;;;;;;16.23;56.31;94654.19;1695537;83;21012;-54
2022/10/04 13:16:30;;;;;;;2.98;2.67;;;;;;;16.19;54.77;94657.19;1703959;82;21204;-54
2022/10/04 13:19:37;;;;;;;3.10;2.67;;;;;;;15.81;55.16;94651.88;1663248;82;21192;-51
2022/10/04 13:22:13;;;;;;;1.70;1.60;;;;;;;15.41;54.46;94660.70;1716182;82;21093;-53
2022/10/04 13:24:55;;;;;;;2.35;2.15;;;;;;;14.95;55.79;94661.78;1712641;82;20963;-56
2022/10/04 13:27:34;;;;;;;3.33;2.85;;;;;;;14.63;56.97;94668.87;1723966;82;20996;-55
2022/10/04 13:30:26;;;;;;;4.47;3.58;;;;;;;14.42;56.91;94671.35;1695906;82;21197;-54
2022/10/04 13:33:10;;;;;;;7.33;6.30;;;;;;;14.22;57.48;94673.19;1714445;81;21126;-55